Charlottesville, Virginia
Current Conditions -  °F | °C
As of 1:53 AM on Saturday 25 Oct 2014 (Local Time) from KCHO Reporting Station
Clear Clear  
Wind Chill: 40°   Ceiling: Unl
Heat Index: 43°   Visibility: 10mi
Dew Point: 38°   Wind: 5mph
Humidity: 82%   Direction: 150°SSE
Pressure: 29.97"   Gusts: NA
Location:  38.03°N, 78.48°W
Report Text: KCHO 250553Z AUTO 15004KT 10SM CLR 06/03 A2997 RMK AO2 SLP145 T00610033 10144 20061 58001
Loading
Personal Weather Stations






























Interactive Weather Map New forecast layout! Learn more

10-Day Weather Forecast

Advertisements
Track Severe Weather on mobile